Time;durP1;ratioP1;P1;durP2;ratioP2;P2;SDS_P1;SDS_P2;PMS_P1;PMS_P2;Temp;Humidity;BMP_temperature;BMP_pressure;BME280_temperature;BME280_humidity;BME280_pressure;Samples;Min_cycle;Max_cycle;Signal;HPM_P1;HPM_P2
2021/06/03 00:00:54;;;;;;;3.22;2.35;;;;;;;25.70;37.64;101493.22;4162944;28;20494;-44
2021/06/03 00:02:55;;;;;;;3.80;2.58;;;;;;;25.57;37.60;101490.09;4165653;28;20554;-45
2021/06/03 00:04:56;;;;;;;2.90;2.65;;;;;;;25.29;38.15;101487.25;4160192;28;20030;-44
2021/06/03 00:06:56;;;;;;;3.95;2.28;;;;;;;25.60;37.98;101489.47;4164111;28;20484;-47
2021/06/03 00:08:57;;;;;;;3.78;2.65;;;;;;;25.51;37.82;101480.13;4166048;28;20079;-48
2021/06/03 00:11:05;;;;;;;7.20;3.45;;;;;;;25.24;38.48;101487.34;4162733;28;20389;-46
2021/06/03 00:13:06;;;;;;;4.32;2.90;;;;;;;25.61;37.99;101485.53;4161427;28;20025;-46
2021/06/03 00:15:10;;;;;;;3.47;2.90;;;;;;;25.68;37.43;101478.69;4164986;28;20029;-44
2021/06/03 00:17:11;;;;;;;10.43;3.35;;;;;;;25.40;37.99;101482.28;4165895;28;20694;-46
2021/06/03 00:19:12;;;;;;;6.30;2.90;;;;;;;25.26;38.54;101482.25;4167365;28;20029;-44
2021/06/03 00:21:14;;;;;;;4.82;2.72;;;;;;;25.45;37.78;101484.16;4166734;28;20076;-44
2021/06/03 00:23:14;;;;;;;3.40;3.10;;;;;;;25.01;38.98;101479.84;4164409;28;20485;-45
2021/06/03 00:25:15;;;;;;;3.83;3.22;;;;;;;24.73;39.26;101468.56;4164171;28;20029;-47
2021/06/03 00:27:15;;;;;;;4.85;3.67;;;;;;;24.68;39.57;101477.88;4161319;28;20036;-46
2021/06/03 00:29:16;;;;;;;6.95;3.58;;;;;;;24.74;39.73;101478.63;4165249;28;20037;-45
2021/06/03 00:31:16;;;;;;;7.78;3.00;;;;;;;25.27;38.40;101467.13;4164785;28;20053;-46
2021/06/03 00:33:17;;;;;;;5.60;2.42;;;;;;;25.43;37.69;101467.66;4166550;28;20029;-46
2021/06/03 00:35:19;;;;;;;4.53;3.22;;;;;;;24.75;39.43;101469.09;4165913;28;20037;-46
2021/06/03 00:37:20;;;;;;;4.30;2.90;;;;;;;24.94;38.79;101469.06;4165874;28;20037;-46
2021/06/03 00:39:20;;;;;;;4.95;3.08;;;;;;;24.90;38.75;101473.59;4164020;28;20099;-45
2021/06/03 00:41:20;;;;;;;3.45;3.13;;;;;;;24.77;39.08;101478.03;4158613;28;20069;-46
2021/06/03 00:43:21;;;;;;;6.20;2.67;;;;;;;24.74;39.12;101481.44;4159773;28;20041;-45
2021/06/03 00:45:40;;;;;;;3.33;3.03;;;;;;;25.24;38.53;101473.34;4161389;28;20033;-44
2021/06/03 00:47:41;;;;;;;3.08;2.35;;;;;;;25.31;37.87;101483.31;4162907;28;20033;-46
2021/06/03 00:49:41;;;;;;;4.22;3.15;;;;;;;24.47;39.91;101466.13;4159843;28;20609;-47
2021/06/03 00:51:42;;;;;;;4.07;3.63;;;;;;;24.41;40.05;101472.94;4143359;28;20044;-48
2021/06/03 00:53:43;;;;;;;3.90;3.58;;;;;;;24.32;40.30;101474.75;4161383;28;20033;-46
2021/06/03 00:55:48;;;;;;;4.10;2.90;;;;;;;24.34;40.14;101467.72;4165941;28;20036;-47
2021/06/03 00:57:48;;;;;;;4.65;3.47;;;;;;;24.17;40.09;101468.22;4167088;28;20467;-47
2021/06/03 00:59:48;;;;;;;8.18;3.42;;;;;;;24.16;40.40;101460.97;4162517;28;20037;-48
2021/06/03 01:01:49;;;;;;;3.15;2.85;;;;;;;24.25;40.33;101468.69;4162084;28;20037;-46
2021/06/03 01:03:49;;;;;;;6.13;3.03;;;;;;;24.29;40.05;101464.16;4165739;28;20216;-47
2021/06/03 01:05:54;;;;;;;3.55;3.17;;;;;;;24.12;40.66;101476.69;4163883;28;20487;-47
2021/06/03 01:07:58;;;;;;;3.95;3.30;;;;;;;24.00;40.76;101462.31;4171977;28;20035;-50
2021/06/03 01:10:19;;;;;;;6.07;2.97;;;;;;;24.31;40.18;101464.69;4170604;28;20024;-47
2021/06/03 01:12:25;;;;;;;4.43;3.50;;;;;;;24.07;40.23;101456.34;4166861;28;20029;-46
2021/06/03 01:14:27;;;;;;;4.82;2.97;;;;;;;24.42;39.85;101454.19;4165639;28;20021;-46
2021/06/03 01:16:28;;;;;;;4.40;3.35;;;;;;;24.26;40.19;101454.41;4165547;28;20048;-47
2021/06/03 01:18:33;;;;;;;3.00;2.80;;;;;;;24.35;40.08;101468.56;4163274;28;20187;-46
2021/06/03 01:20:34;;;;;;;3.42;3.10;;;;;;;24.33;40.15;101459.63;4163802;28;20073;-45
2021/06/03 01:22:48;;;;;;;4.45;3.20;;;;;;;24.13;40.54;101458.78;4163498;28;20030;-45
2021/06/03 01:24:54;;;;;;;3.53;2.90;;;;;;;24.37;40.07;101455.09;4173701;28;20020;-46
2021/06/03 01:26:59;;;;;;;4.00;3.40;;;;;;;24.02;40.43;101460.03;4167609;28;20449;-48
2021/06/03 01:29:00;;;;;;;3.45;3.03;;;;;;;24.37;39.75;101452.28;4165301;28;20529;-46
2021/06/03 01:31:01;;;;;;;3.40;3.20;;;;;;;23.99;40.50;101474.63;4161583;28;20072;-46
2021/06/03 01:33:10;;;;;;;4.93;2.95;;;;;;;24.38;39.68;101473.56;4167029;28;21399;-46
2021/06/03 01:35:17;;;;;;;5.60;3.25;;;;;;;24.47;39.65;101456.91;4170741;28;20060;-46
2021/06/03 01:37:18;;;;;;;3.13;2.83;;;;;;;24.32;39.73;101458.78;4165426;28;20029;-46
2021/06/03 01:39:19;;;;;;;3.35;3.05;;;;;;;24.37;39.50;101464.31;4162533;28;20484;-45
2021/06/03 01:41:20;;;;;;;4.47;3.15;;;;;;;24.11;40.02;101463.00;4167981;28;20049;-45
2021/06/03 01:43:22;;;;;;;3.10;2.80;;;;;;;24.20;40.21;101467.63;4164491;28;20384;-46
2021/06/03 01:45:23;;;;;;;3.55;3.25;;;;;;;24.35;39.52;101455.38;4149406;28;20042;-47
2021/06/03 01:47:24;;;;;;;4.63;3.20;;;;;;;24.45;39.52;101460.00;4166098;28;20499;-45
2021/06/03 01:49:25;;;;;;;5.28;3.40;;;;;;;24.28;39.88;101454.09;4172050;28;20033;-48
2021/06/03 01:51:26;;;;;;;3.55;3.25;;;;;;;24.19;39.93;101460.38;4167890;28;20033;-46
2021/06/03 01:53:29;;;;;;;3.63;3.33;;;;;;;24.26;39.70;101453.59;4167935;28;20042;-46
2021/06/03 01:55:29;;;;;;;4.22;3.83;;;;;;;23.81;40.99;101468.66;4164972;28;20052;-47
2021/06/03 01:57:30;;;;;;;5.60;3.60;;;;;;;23.97;40.54;101472.13;4163673;28;20038;-45
2021/06/03 01:59:33;;;;;;;3.88;3.47;;;;;;;23.57;41.22;101462.22;4167373;28;20030;-46
2021/06/03 02:01:33;;;;;;;4.03;3.40;;;;;;;23.62;41.43;101465.81;4165318;28;20032;-45
2021/06/03 02:03:35;;;;;;;4.22;3.25;;;;;;;23.68;41.37;101473.00;4161036;28;20033;-45
2021/06/03 02:05:35;;;;;;;4.53;3.63;;;;;;;23.71;41.31;101470.75;4165475;28;20135;-45
2021/06/03 02:07:37;;;;;;;4.85;3.10;;;;;;;23.71;40.98;101471.56;4167636;28;20442;-46
2021/06/03 02:09:38;;;;;;;3.42;3.13;;;;;;;23.77;40.78;101478.75;4162421;28;20025;-46
2021/06/03 02:11:44;;;;;;;3.00;2.60;;;;;;;24.31;39.94;101467.50;4166474;28;20044;-47
2021/06/03 02:13:50;;;;;;;3.25;3.00;;;;;;;23.78;40.78;101460.88;4167825;28;20095;-48
2021/06/03 02:16:10;;;;;;;4.00;3.60;;;;;;;23.61;41.01;101460.53;4162524;28;20107;-45
2021/06/03 02:18:13;;;;;;;5.70;3.88;;;;;;;23.47;41.18;101461.22;4165789;28;20487;-47
2021/06/03 02:20:16;;;;;;;4.05;2.85;;;;;;;23.83;40.82;101469.19;4159924;28;20037;-48
2021/06/03 02:22:19;;;;;;;4.18;3.55;;;;;;;24.16;39.86;101462.94;4168556;28;20025;-47
2021/06/03 02:24:21;;;;;;;4.63;3.22;;;;;;;23.63;40.83;101459.06;4166419;28;20451;-48
2021/06/03 02:26:23;;;;;;;4.03;3.60;;;;;;;23.42;41.35;101460.44;4164734;28;20483;-46
2021/06/03 02:28:24;;;;;;;4.28;3.88;;;;;;;23.51;40.88;101473.47;4171513;28;20029;-45
2021/06/03 02:30:25;;;;;;;4.45;4.05;;;;;;;24.01;39.89;101472.38;4165943;28;20067;-45
2021/06/03 02:32:30;;;;;;;4.60;3.10;;;;;;;24.04;39.53;101469.81;4163233;28;20036;-46
2021/06/03 02:34:30;;;;;;;4.28;3.40;;;;;;;23.71;40.39;101459.56;4166217;28;20419;-45
2021/06/03 02:36:32;;;;;;;6.40;4.60;;;;;;;23.51;40.74;101481.84;4166388;28;20029;-44
2021/06/03 02:38:33;;;;;;;5.18;3.50;;;;;;;23.77;40.24;101503.91;4156442;28;20152;-46
2021/06/03 02:40:34;;;;;;;5.28;4.35;;;;;;;23.79;40.09;101552.00;4163359;28;20522;-45
2021/06/03 02:42:35;;;;;;;12.77;5.13;;;;;;;23.45;41.02;101546.44;4166218;28;20061;-45
2021/06/03 02:44:36;;;;;;;8.20;5.25;;;;;;;23.22;41.10;101536.84;4172982;28;20112;-45
2021/06/03 02:46:37;;;;;;;7.25;5.57;;;;;;;23.08;41.51;101515.19;4163732;28;20045;-45
2021/06/03 02:48:37;;;;;;;6.93;5.22;;;;;;;23.47;40.48;101527.44;4168862;28;20087;-45
2021/06/03 02:50:38;;;;;;;8.13;5.45;;;;;;;23.67;40.07;101537.59;4161892;28;20033;-45
2021/06/03 02:52:39;;;;;;;5.50;5.00;;;;;;;23.58;40.12;101544.94;4168408;28;20044;-45
2021/06/03 02:54:39;;;;;;;8.80;5.82;;;;;;;23.66;40.01;101549.88;4168457;28;20036;-45
2021/06/03 02:56:40;;;;;;;7.57;5.50;;;;;;;23.71;39.38;101537.81;4168963;28;20033;-45
2021/06/03 02:58:40;;;;;;;7.82;6.53;;;;;;;23.06;40.43;101531.38;4147254;28;20037;-45
2021/06/03 03:00:41;;;;;;;8.43;5.88;;;;;;;23.44;40.04;101554.00;4167375;28;20083;-47
2021/06/03 03:02:42;;;;;;;6.00;5.40;;;;;;;23.37;40.28;101555.47;4160054;28;20069;-45
2021/06/03 03:04:43;;;;;;;8.38;6.65;;;;;;;23.12;40.59;101551.75;4161614;28;20390;-46
2021/06/03 03:06:43;;;;;;;7.60;6.18;;;;;;;23.29;39.97;101552.16;4161949;28;20052;-45
2021/06/03 03:08:44;;;;;;;9.43;6.95;;;;;;;23.04;40.64;101552.38;4160452;28;20026;-44
2021/06/03 03:10:48;;;;;;;7.93;6.93;;;;;;;23.05;40.64;101554.88;4167995;28;20033;-46
2021/06/03 03:12:48;;;;;;;11.32;7.32;;;;;;;22.87;40.90;101552.75;4164380;28;20021;-45
2021/06/03 03:14:49;;;;;;;8.35;7.47;;;;;;;22.78;41.15;101544.16;4170350;28;20033;-45
2021/06/03 03:16:51;;;;;;;7.90;7.00;;;;;;;22.76;41.13;101552.81;4164299;28;20395;-45
2021/06/03 03:18:51;;;;;;;8.07;7.28;;;;;;;22.68;41.41;101550.66;4171672;28;20051;-44
2021/06/03 03:20:52;;;;;;;8.77;7.50;;;;;;;22.48;41.51;101553.50;4159694;28;20034;-46
2021/06/03 03:22:52;;;;;;;10.05;7.90;;;;;;;22.23;42.13;101556.13;4142515;28;20038;-46
2021/06/03 03:24:52;;;;;;;9.82;7.30;;;;;;;22.45;41.87;101557.72;4159421;28;20029;-45
2021/06/03 03:26:53;;;;;;;7.78;6.95;;;;;;;22.62;41.26;101562.94;4160645;28;20032;-45
2021/06/03 03:28:53;;;;;;;7.30;5.65;;;;;;;22.64;41.28;101571.84;4163182;28;20700;-45
2021/06/03 03:30:54;;;;;;;7.60;5.90;;;;;;;22.76;40.96;101571.53;4168993;28;20040;-45
2021/06/03 03:32:55;;;;;;;6.70;6.10;;;;;;;22.44;41.61;101572.78;4158738;28;20029;-46
2021/06/03 03:34:55;;;;;;;9.35;6.22;;;;;;;22.54;41.62;101563.50;4163640;28;20024;-46
2021/06/03 03:36:56;;;;;;;7.40;5.53;;;;;;;22.69;41.19;101571.84;4161963;28;20039;-46
2021/06/03 03:38:57;;;;;;;9.27;6.40;;;;;;;22.34;41.95;101562.50;4165241;28;20041;-45
2021/06/03 03:40:57;;;;;;;6.72;5.72;;;;;;;22.53;41.37;101565.47;4163409;28;20048;-45
2021/06/03 03:42:58;;;;;;;6.78;6.03;;;;;;;22.25;42.10;101572.59;4162947;28;20040;-46
2021/06/03 03:44:58;;;;;;;6.35;5.60;;;;;;;22.39;41.88;101578.38;4161954;28;20043;-45
2021/06/03 03:46:59;;;;;;;7.68;5.90;;;;;;;22.42;41.71;101570.28;4167359;28;20060;-44
2021/06/03 03:48:59;;;;;;;7.22;5.28;;;;;;;22.68;40.99;101578.56;4164546;28;20368;-45
2021/06/03 03:51:00;;;;;;;8.43;5.85;;;;;;;22.48;41.47;101571.09;4160380;28;20041;-44
2021/06/03 03:53:01;;;;;;;6.00;5.22;;;;;;;22.82;40.67;101569.53;4160918;28;20566;-45
2021/06/03 03:55:02;;;;;;;8.85;6.45;;;;;;;22.44;41.57;101570.81;4160687;28;20029;-44
2021/06/03 03:57:03;;;;;;;6.38;5.47;;;;;;;22.55;41.39;101576.34;4163860;28;20087;-46
2021/06/03 03:59:04;;;;;;;6.65;5.95;;;;;;;22.49;41.36;101572.75;4162705;28;20036;-44
2021/06/03 04:01:05;;;;;;;8.07;5.55;;;;;;;22.89;40.78;101581.22;4160610;28;20556;-45
2021/06/03 04:03:06;;;;;;;6.70;6.00;;;;;;;22.51;41.32;101586.41;4161221;28;20038;-45
2021/06/03 04:05:07;;;;;;;5.97;5.15;;;;;;;22.66;41.21;101580.78;4163508;28;20495;-48
2021/06/03 04:07:08;;;;;;;6.25;5.63;;;;;;;22.72;41.26;101590.78;4164642;28;20040;-47
2021/06/03 04:09:08;;;;;;;8.10;4.90;;;;;;;22.74;41.21;101565.38;4162962;28;20387;-44
2021/06/03 04:11:09;;;;;;;6.70;5.38;;;;;;;22.78;41.22;101575.69;4165175;28;20061;-47
2021/06/03 04:13:09;;;;;;;7.18;5.60;;;;;;;22.61;41.46;101584.41;4165780;28;20029;-44
2021/06/03 04:15:11;;;;;;;6.13;5.63;;;;;;;22.34;42.55;101584.81;4161231;28;20510;-46
2021/06/03 04:17:11;;;;;;;7.43;5.68;;;;;;;22.33;42.50;101599.06;4169602;28;20037;-45
2021/06/03 04:19:11;;;;;;;7.18;5.32;;;;;;;22.66;41.88;101591.13;4161438;28;20056;-45
2021/06/03 04:21:12;;;;;;;7.18;5.10;;;;;;;22.76;41.56;101593.88;4172187;28;20029;-46
2021/06/03 04:23:12;;;;;;;5.68;5.10;;;;;;;22.51;42.25;101597.56;4165825;28;20033;-46
2021/06/03 04:25:13;;;;;;;6.82;5.55;;;;;;;22.42;42.59;101591.75;4165580;28;20041;-46
2021/06/03 04:27:13;;;;;;;7.10;5.32;;;;;;;22.78;41.51;101609.19;4159078;28;20045;-46
2021/06/03 04:29:14;;;;;;;8.20;5.18;;;;;;;22.54;42.19;101605.38;4160869;28;20036;-45
2021/06/03 04:31:14;;;;;;;5.78;4.60;;;;;;;22.72;41.73;101604.75;4160771;28;20036;-45
2021/06/03 04:33:20;;;;;;;7.18;4.85;;;;;;;22.47;42.69;101608.47;4162309;28;20043;-47
2021/06/03 04:35:22;;;;;;;5.72;5.20;;;;;;;22.49;42.52;101608.19;4165076;28;20045;-45
2021/06/03 04:37:24;;;;;;;5.88;5.15;;;;;;;22.70;41.92;101608.97;4165645;28;20038;-45
2021/06/03 04:39:26;;;;;;;7.30;5.35;;;;;;;22.61;42.17;101612.31;4169914;28;20045;-47
2021/06/03 04:41:27;;;;;;;6.40;5.20;;;;;;;22.22;43.56;101617.78;4173813;28;20041;-46
2021/06/03 04:43:28;;;;;;;8.68;5.07;;;;;;;22.27;43.65;101618.59;4170610;28;20465;-47
2021/06/03 04:45:28;;;;;;;6.93;5.45;;;;;;;22.49;42.74;101609.00;4168639;28;20363;-46
2021/06/03 04:47:29;;;;;;;5.57;5.07;;;;;;;22.44;42.79;101617.41;4167159;28;20364;-49
2021/06/03 04:49:29;;;;;;;6.13;5.53;;;;;;;22.12;43.63;101621.44;4170945;28;20036;-45
2021/06/03 04:51:30;;;;;;;5.93;5.35;;;;;;;22.16;43.67;101621.69;4174819;28;20041;-47
2021/06/03 04:53:30;;;;;;;7.72;5.35;;;;;;;22.42;43.38;101609.31;4167481;28;20502;-44
2021/06/03 04:55:31;;;;;;;7.53;4.65;;;;;;;22.39;43.13;101615.47;4165385;28;20040;-45
2021/06/03 04:57:32;;;;;;;4.85;4.40;;;;;;;22.47;43.07;101614.06;4173063;28;20034;-45
2021/06/03 04:59:32;;;;;;;6.35;4.53;;;;;;;22.51;43.08;101619.88;4167384;28;20037;-44
2021/06/03 05:01:33;;;;;;;5.78;4.60;;;;;;;22.48;43.09;101623.25;4168508;28;20033;-47
2021/06/03 05:03:34;;;;;;;6.22;4.32;;;;;;;22.61;42.85;101625.44;4165066;28;20113;-45
2021/06/03 05:05:36;;;;;;;6.68;4.60;;;;;;;22.69;42.73;101624.03;4164782;28;20033;-45
2021/06/03 05:07:36;;;;;;;3.60;3.28;;;;;;;22.90;41.94;101625.59;4171565;28;20387;-44
2021/06/03 05:09:40;;;;;;;4.40;3.72;;;;;;;22.73;42.24;101625.13;4169717;28;20038;-45
2021/06/03 05:11:40;;;;;;;7.32;3.65;;;;;;;22.84;42.03;101615.56;4165307;28;20052;-44
2021/06/03 05:13:41;;;;;;;7.20;3.85;;;;;;;22.68;42.56;101637.16;4154996;28;20427;-45
2021/06/03 05:15:41;;;;;;;4.25;3.78;;;;;;;22.79;42.34;101621.19;4173147;28;20025;-45
2021/06/03 05:17:44;;;;;;;6.18;3.63;;;;;;;22.68;42.38;101626.00;4163035;28;20446;-45
2021/06/03 05:19:44;;;;;;;5.68;3.75;;;;;;;22.71;42.15;101622.63;4168174;28;20160;-44
2021/06/03 05:21:45;;;;;;;4.85;3.50;;;;;;;23.04;41.64;101636.97;4171759;28;20484;-45
2021/06/03 05:23:45;;;;;;;3.33;3.03;;;;;;;22.95;41.79;101642.31;4165336;28;20111;-45
2021/06/03 05:25:46;;;;;;;5.22;3.35;;;;;;;22.88;41.77;101621.41;4167000;28;20094;-45
2021/06/03 05:27:47;;;;;;;3.72;3.28;;;;;;;22.94;41.80;101637.88;4168576;28;20099;-45
2021/06/03 05:29:47;;;;;;;5.03;3.55;;;;;;;22.87;42.35;101636.50;4168836;28;20037;-45
2021/06/03 05:31:47;;;;;;;5.15;4.20;;;;;;;22.75;42.71;101636.84;4166301;28;20060;-44
2021/06/03 05:33:48;;;;;;;8.38;4.53;;;;;;;22.65;43.21;101645.22;4166425;28;20143;-46
2021/06/03 05:35:49;;;;;;;7.22;4.25;;;;;;;22.67;43.41;101648.63;4170776;28;20578;-46
2021/06/03 05:37:49;;;;;;;4.75;3.85;;;;;;;22.73;43.01;101662.25;4162327;28;20531;-45
2021/06/03 05:39:50;;;;;;;7.88;4.80;;;;;;;22.72;43.38;101654.16;4162658;28;20033;-46
2021/06/03 05:41:51;;;;;;;4.75;4.38;;;;;;;22.61;43.72;101650.53;4165239;28;20041;-46
2021/06/03 05:43:51;;;;;;;5.82;4.43;;;;;;;22.44;44.29;101659.25;4169335;28;20415;-47
2021/06/03 05:45:52;;;;;;;6.95;4.18;;;;;;;22.41;44.34;101657.84;4164674;28;20037;-46
2021/06/03 05:47:52;;;;;;;5.18;4.30;;;;;;;22.55;43.90;101662.84;4175680;28;20029;-46
2021/06/03 05:49:53;;;;;;;7.10;4.45;;;;;;;22.62;43.75;101657.81;4166014;28;20051;-46
2021/06/03 05:51:53;;;;;;;6.63;3.83;;;;;;;22.63;44.08;101665.03;4161081;28;20087;-47
2021/06/03 05:53:54;;;;;;;4.95;4.32;;;;;;;22.43;44.40;101660.38;4171194;28;20472;-45
2021/06/03 05:55:54;;;;;;;4.75;4.20;;;;;;;22.45;44.18;101677.69;4163596;28;20120;-50
2021/06/03 05:57:55;;;;;;;4.80;4.22;;;;;;;22.76;43.78;101675.63;4168774;28;20033;-47
2021/06/03 05:59:56;;;;;;;5.55;3.63;;;;;;;22.65;44.31;101684.28;4166155;28;20095;-47
2021/06/03 06:02:03;;;;;;;5.05;4.00;;;;;;;22.62;44.06;101669.78;4167692;28;20116;-46
2021/06/03 06:08:24;;;;;;;7.45;4.38;;;;;;;22.51;44.44;101678.47;4167544;28;20403;-47
2021/06/03 06:10:24;;;;;;;4.80;3.67;;;;;;;22.38;44.83;101672.38;4169515;28;20029;-45
2021/06/03 06:12:25;;;;;;;5.32;3.90;;;;;;;22.67;44.36;101684.88;4162276;28;20026;-45
2021/06/03 06:14:25;;;;;;;8.00;4.80;;;;;;;22.56;44.51;101682.09;4162591;28;20047;-45
2021/06/03 06:16:26;;;;;;;5.65;4.60;;;;;;;22.43;45.21;101683.53;4162865;28;20037;-46
2021/06/03 06:18:26;;;;;;;6.78;4.63;;;;;;;22.54;45.11;101689.91;4164927;28;20446;-46
2021/06/03 06:20:27;;;;;;;6.43;4.60;;;;;;;22.60;44.56;101674.84;4165913;28;20051;-47
2021/06/03 06:22:28;;;;;;;4.70;4.00;;;;;;;22.67;44.44;101685.72;4164881;28;20033;-47
2021/06/03 06:24:29;;;;;;;7.85;4.45;;;;;;;22.51;45.11;101695.22;4170748;28;20056;-45
2021/06/03 06:26:30;;;;;;;7.35;4.43;;;;;;;22.43;45.30;101696.63;4163028;28;20056;-46
2021/06/03 06:28:30;;;;;;;6.13;4.63;;;;;;;22.48;45.24;101710.59;4164665;28;20041;-47
2021/06/03 06:30:31;;;;;;;6.80;4.93;;;;;;;22.58;44.94;101701.34;4162538;28;21540;-47
2021/06/03 06:32:32;;;;;;;7.32;4.90;;;;;;;22.63;44.70;101692.94;4163139;28;20431;-48
2021/06/03 06:34:32;;;;;;;10.30;4.68;;;;;;;22.53;45.04;101695.78;4166756;28;20036;-47
2021/06/03 06:36:33;;;;;;;6.75;4.70;;;;;;;22.71;44.58;101684.03;4167145;28;20159;-47
2021/06/03 06:38:34;;;;;;;5.50;4.50;;;;;;;22.38;44.98;101665.97;4168078;28;20037;-45
2021/06/03 06:40:35;;;;;;;7.50;4.93;;;;;;;22.54;44.98;101695.50;4164998;28;20484;-48
2021/06/03 06:42:36;;;;;;;6.57;4.63;;;;;;;22.55;45.02;101701.91;4168208;28;20075;-47
2021/06/03 06:44:36;;;;;;;7.18;4.32;;;;;;;22.68;45.09;101697.69;4168749;28;20426;-44
2021/06/03 06:46:37;;;;;;;4.43;4.03;;;;;;;22.82;44.59;101703.50;4167948;28;20029;-46
2021/06/03 06:48:38;;;;;;;5.97;4.93;;;;;;;22.65;44.80;101699.09;4166058;28;20079;-46
2021/06/03 06:50:40;;;;;;;5.57;4.35;;;;;;;22.80;44.39;101701.84;4164308;28;20038;-45
2021/06/03 06:52:40;;;;;;;5.85;4.22;;;;;;;22.94;44.18;101707.66;4166320;28;20095;-47
2021/06/03 06:54:41;;;;;;;4.80;4.40;;;;;;;22.85;44.27;101708.53;4165126;28;20021;-46
2021/06/03 06:56:42;;;;;;;5.85;4.30;;;;;;;22.68;44.77;101715.31;4165938;28;20529;-46
2021/06/03 06:58:43;;;;;;;4.55;4.10;;;;;;;22.84;44.42;101724.44;4169239;28;20033;-47
2021/06/03 07:00:45;;;;;;;4.95;3.90;;;;;;;22.83;44.50;101719.97;4170529;28;20045;-46
2021/06/03 07:02:45;;;;;;;9.98;4.93;;;;;;;22.66;45.11;101720.31;4168834;28;20025;-46
2021/06/03 07:04:45;;;;;;;5.95;4.60;;;;;;;22.52;44.69;101699.69;4167705;28;20575;-44
2021/06/03 07:06:46;;;;;;;6.25;4.40;;;;;;;22.65;44.83;101729.78;4166555;28;20554;-45
2021/06/03 07:08:46;;;;;;;4.88;4.35;;;;;;;22.69;44.79;101725.31;4160794;28;20036;-46
2021/06/03 07:10:48;;;;;;;5.72;4.10;;;;;;;22.82;44.54;101731.41;4160213;28;20041;-46
2021/06/03 07:12:50;;;;;;;5.07;3.90;;;;;;;22.74;44.85;101733.69;4168662;28;20163;-46
2021/06/03 07:14:50;;;;;;;6.05;4.20;;;;;;;22.61;45.07;101731.47;4165913;28;20071;-47
2021/06/03 07:16:51;;;;;;;5.88;4.50;;;;;;;22.61;45.42;101731.47;4162143;28;20033;-48
2021/06/03 07:18:51;;;;;;;4.75;4.28;;;;;;;22.68;45.12;101731.19;4163985;28;20460;-47
2021/06/03 07:20:52;;;;;;;5.43;3.85;;;;;;;22.77;44.58;101727.56;4167267;28;20152;-46
2021/06/03 07:22:55;;;;;;;7.13;4.30;;;;;;;22.75;44.69;101731.75;4162685;28;20026;-46
2021/06/03 07:24:55;;;;;;;6.68;4.00;;;;;;;22.63;44.59;101710.53;4159410;28;20033;-46
2021/06/03 07:26:56;;;;;;;9.30;4.90;;;;;;;22.82;44.63;101739.78;4159881;28;20025;-45
2021/06/03 07:28:56;;;;;;;8.98;4.50;;;;;;;22.82;44.57;101737.84;4157661;28;20381;-45
2021/06/03 07:30:56;;;;;;;13.32;4.50;;;;;;;23.02;44.10;101739.75;4157405;28;20436;-46
2021/06/03 07:32:57;;;;;;;5.18;3.70;;;;;;;23.21;43.76;101737.13;4164682;28;20030;-47
2021/06/03 07:34:57;;;;;;;9.35;3.85;;;;;;;23.20;43.37;101731.81;4152374;28;20186;-44
2021/06/03 07:36:58;;;;;;;13.73;4.60;;;;;;;23.18;43.80;101748.03;4158312;28;20071;-46
2021/06/03 07:39:00;;;;;;;9.05;4.72;;;;;;;23.30;43.63;101735.41;4163638;28;20033;-46
2021/06/03 07:41:00;;;;;;;6.25;4.63;;;;;;;23.30;43.54;101737.38;4159391;28;20045;-44
2021/06/03 07:43:01;;;;;;;5.95;5.22;;;;;;;23.32;43.80;101740.72;4147200;28;20037;-47
2021/06/03 07:45:04;;;;;;;8.88;4.78;;;;;;;23.39;43.55;101746.00;4162250;28;20123;-45
2021/06/03 07:47:04;;;;;;;7.72;5.22;;;;;;;23.26;43.98;101741.84;4158774;28;20033;-46
2021/06/03 07:49:05;;;;;;;7.57;5.70;;;;;;;23.26;43.54;101728.72;4162249;28;20025;-44
2021/06/03 07:51:06;;;;;;;11.18;6.30;;;;;;;23.35;43.72;101742.94;4162922;28;20029;-45
2021/06/03 07:53:07;;;;;;;11.38;5.78;;;;;;;23.36;43.72;101746.56;4167409;28;20040;-45
2021/06/03 07:55:10;;;;;;;6.65;5.90;;;;;;;23.48;43.53;101749.84;4168128;28;20479;-47
2021/06/03 07:57:11;;;;;;;6.68;5.15;;;;;;;23.45;43.41;101753.22;4164153;28;20021;-45
2021/06/03 07:59:11;;;;;;;9.52;5.97;;;;;;;23.60;43.47;101755.09;4166791;28;20033;-46
2021/06/03 08:01:12;;;;;;;11.02;5.55;;;;;;;23.59;42.97;101750.63;4165798;28;20449;-47
2021/06/03 08:03:13;;;;;;;7.60;6.18;;;;;;;23.56;43.28;101737.22;4163071;28;20059;-45
2021/06/03 08:05:17;;;;;;;9.52;6.55;;;;;;;23.46;43.79;101755.72;4162280;28;20022;-47
2021/06/03 08:07:18;;;;;;;8.80;7.10;;;;;;;23.49;43.68;101754.31;4161480;28;20033;-48
2021/06/03 08:09:18;;;;;;;8.13;7.03;;;;;;;23.54;42.95;101747.88;4164234;28;20388;-46
2021/06/03 08:11:18;;;;;;;10.85;6.85;;;;;;;23.67;42.81;101750.84;4163150;28;20025;-46
2021/06/03 08:13:19;;;;;;;11.40;7.07;;;;;;;23.62;42.86;101747.25;4164809;28;20139;-46
2021/06/03 08:15:20;;;;;;;10.43;7.45;;;;;;;23.75;42.28;101759.75;4164206;28;20441;-45
2021/06/03 08:17:21;;;;;;;9.35;6.25;;;;;;;23.71;42.74;101764.25;4163538;28;20085;-46
2021/06/03 08:19:21;;;;;;;11.95;7.28;;;;;;;23.59;42.43;101751.47;4163444;28;20033;-46
2021/06/03 08:21:22;;;;;;;9.95;8.13;;;;;;;23.52;42.86;101767.72;4167121;28;20033;-49
2021/06/03 08:23:26;;;;;;;10.95;8.32;;;;;;;23.65;42.62;101766.22;4175006;28;20029;-46
2021/06/03 08:25:27;;;;;;;10.43;8.25;;;;;;;23.59;42.66;101759.00;4165989;28;20033;-48
2021/06/03 08:27:27;;;;;;;10.98;8.50;;;;;;;23.65;42.73;101766.22;4167568;28;20120;-47
2021/06/03 08:29:28;;;;;;;8.20;7.40;;;;;;;23.75;42.58;101776.53;4173931;28;20533;-49
2021/06/03 08:31:28;;;;;;;8.90;7.85;;;;;;;23.77;42.35;101766.69;4166218;28;20113;-47
2021/06/03 08:33:29;;;;;;;13.90;7.97;;;;;;;23.75;42.47;101780.16;4169086;28;20068;-49
2021/06/03 08:35:30;;;;;;;10.73;7.82;;;;;;;23.82;42.34;101774.22;4168722;28;20141;-47
2021/06/03 08:37:31;;;;;;;7.18;6.30;;;;;;;23.86;42.13;101767.75;4162364;28;20120;-50
2021/06/03 08:39:31;;;;;;;9.75;6.43;;;;;;;23.77;42.28;101771.47;4170249;28;20072;-48
2021/06/03 08:41:35;;;;;;;11.55;7.03;;;;;;;23.76;42.04;101765.06;4169093;28;20201;-47
2021/06/03 08:43:36;;;;;;;9.77;7.10;;;;;;;23.85;41.80;101762.44;4164776;28;20134;-43
2021/06/03 08:45:39;;;;;;;10.93;6.93;;;;;;;23.80;42.21;101774.50;4168642;28;20029;-44
2021/06/03 08:47:39;;;;;;;9.40;7.88;;;;;;;23.79;42.09;101772.84;4166091;28;20033;-45
2021/06/03 08:49:40;;;;;;;13.80;8.20;;;;;;;23.97;41.92;101788.13;4161252;28;20547;-45
2021/06/03 08:51:40;;;;;;;12.32;7.60;;;;;;;23.95;41.77;101778.34;4160024;28;20029;-45
2021/06/03 08:53:41;;;;;;;13.88;7.20;;;;;;;23.87;42.25;101789.00;4161595;28;20166;-46
2021/06/03 08:58:03;;;;;;;8.80;6.75;;;;;;;24.08;41.94;101788.03;4166489;28;20044;-46
2021/06/03 09:00:05;;;;;;;12.30;7.15;;;;;;;23.87;42.21;101790.97;4162380;28;20038;-45
2021/06/03 09:02:06;;;;;;;13.45;8.52;;;;;;;24.04;42.06;101805.41;4158132;28;20127;-44
2021/06/03 09:04:06;;;;;;;9.13;7.15;;;;;;;24.06;41.88;101807.91;4165468;28;20025;-44
2021/06/03 09:06:08;;;;;;;17.27;8.82;;;;;;;23.95;42.12;101807.16;4160699;28;20045;-44
2021/06/03 09:08:27;;;;;;;15.82;10.80;;;;;;;23.92;41.27;101824.47;4167279;28;20068;-47
2021/06/03 09:10:34;;;;;;;18.15;10.38;;;;;;;23.80;41.35;101816.44;4164430;28;20550;-46
2021/06/03 09:12:34;;;;;;;17.77;12.60;;;;;;;23.67;41.50;101811.50;4164490;28;20307;-46
2021/06/03 09:14:35;;;;;;;16.45;13.07;;;;;;;23.70;41.04;101819.31;4161042;28;20536;-45
2021/06/03 09:16:38;;;;;;;19.67;13.82;;;;;;;23.46;41.11;101822.78;4162203;28;20037;-45
2021/06/03 09:18:53;;;;;;;13.13;11.73;;;;;;;23.56;40.72;101804.28;4169976;28;20421;-46
2021/06/03 09:20:54;;;;;;;17.58;12.05;;;;;;;23.82;40.18;101808.63;4168078;28;20033;-46
2021/06/03 09:22:55;;;;;;;16.67;11.32;;;;;;;23.84;40.27;101822.31;4169823;28;20060;-46
2021/06/03 09:24:56;;;;;;;17.35;12.40;;;;;;;23.83;40.58;101826.22;4165269;28;20103;-48
2021/06/03 09:26:58;;;;;;;23.88;13.35;;;;;;;23.70;40.32;101813.72;4169569;28;20037;-45
2021/06/03 09:29:00;;;;;;;18.35;12.27;;;;;;;23.72;40.52;101833.00;4167009;28;20096;-46
2021/06/03 09:31:09;;;;;;;17.10;12.10;;;;;;;23.91;40.21;101830.38;4166363;28;20065;-47